createdAt,value
2023-03-20T00:01:41.760Z,98552.56
2023-03-20T00:04:44.714Z,98550.16
2023-03-20T00:07:46.659Z,98541.06
2023-03-20T00:10:48.410Z,98535.81
2023-03-20T00:13:49.913Z,98532.22
2023-03-20T00:16:51.929Z,98542.16
2023-03-20T00:19:55.255Z,98536.09
2023-03-20T00:22:56.886Z,98535.56
2023-03-20T00:25:58.530Z,98536.03
2023-03-20T00:29:01.025Z,98531.06
2023-03-20T00:32:02.830Z,98528.75
2023-03-20T00:35:16.801Z,98535.91
2023-03-20T00:38:18.348Z,98535.31
2023-03-20T00:41:22.671Z,98540.03
2023-03-20T00:44:30.375Z,98549.16
2023-03-20T00:47:34.128Z,98547.84
2023-03-20T00:50:40.023Z,98551.41
2023-03-20T00:53:41.841Z,98552.31
2023-03-20T00:56:45.776Z,98555.44
2023-03-20T00:59:52.350Z,98552.84
2023-03-20T01:02:55.125Z,98553.91
2023-03-20T01:06:00.291Z,98546.91
2023-03-20T01:09:01.857Z,98550.47
2023-03-20T01:12:05.550Z,98554.19
2023-03-20T01:15:15.821Z,98557.66
2023-03-20T01:18:17.748Z,98562.38
2023-03-20T01:21:21.224Z,98567.25
2023-03-20T01:24:22.931Z,98563.69
2023-03-20T01:27:24.517Z,98571.03
2023-03-20T01:30:27.364Z,98564.78
2023-03-20T01:33:29.527Z,98569.25
2023-03-20T01:36:32.658Z,98565.13
2023-03-20T01:39:36.030Z,98569.72
2023-03-20T01:42:38.438Z,98571.66
2023-03-20T01:45:42.637Z,98564.59
2023-03-20T01:48:59.296Z,98564.53
2023-03-20T01:52:02.973Z,98559.22
2023-03-20T01:55:07.019Z,98546.81
2023-03-20T01:58:13.271Z,98562.06
2023-03-20T02:01:16.117Z,98574.50
2023-03-20T02:04:20.603Z,98580.81
2023-03-20T02:07:29.137Z,98586.97
2023-03-20T02:10:34.734Z,98591.50
2023-03-20T02:13:57.102Z,98602.16
2023-03-20T02:17:02.127Z,98595.97
2023-03-20T02:20:23.082Z,98591.75
2023-03-20T02:23:41.916Z,98598.06
2023-03-20T02:26:51.542Z,98604.25
2023-03-20T02:30:11.652Z,98606.06
2023-03-20T02:33:27.532Z,98602.59
2023-03-20T02:36:53.976Z,98597.28
2023-03-20T02:40:04.786Z,98599.25
2023-03-20T02:43:14.207Z,98596.53
2023-03-20T02:46:25.514Z,98592.88
2023-03-20T02:49:35.432Z,98594.69
2023-03-20T02:52:44.097Z,98595.66
2023-03-20T02:55:53.134Z,98599.31
2023-03-20T02:58:59.901Z,98594.75
2023-03-20T03:02:05.972Z,98598.25
2023-03-20T03:05:13.201Z,98594.63
2023-03-20T03:08:16.683Z,98586.56
2023-03-20T03:11:21.161Z,98581.25
2023-03-20T03:14:29.872Z,98584.72
2023-03-20T03:17:34.532Z,98589.03
2023-03-20T03:20:38.330Z,98583.66
2023-03-20T03:23:44.686Z,98588.19
2023-03-20T03:26:48.022Z,98589.78
2023-03-20T03:29:53.907Z,98588.78
2023-03-20T03:33:07.329Z,98593.25
2023-03-20T03:36:13.115Z,98599.47
2023-03-20T03:39:21.388Z,98590.59
2023-03-20T03:42:31.176Z,98594.16
2023-03-20T03:45:36.463Z,98594.16
2023-03-20T03:48:40.820Z,98599.47
2023-03-20T03:51:43.986Z,98591.44
2023-03-20T03:54:49.022Z,98602.88
2023-03-20T03:58:07.272Z,98594.03
2023-03-20T04:01:12.041Z,98598.47
2023-03-20T04:04:16.452Z,98600.22
2023-03-20T04:07:18.300Z,98595.88
2023-03-20T04:10:19.854Z,98591.38
2023-03-20T04:13:22.940Z,98599.34
2023-03-20T04:16:25.900Z,98586.13
2023-03-20T04:19:28.482Z,98583.47
2023-03-20T04:22:31.432Z,98579.94
2023-03-20T04:25:39.464Z,98578.94
2023-03-20T04:28:45.621Z,98566.59
2023-03-20T04:32:06.053Z,98567.50
2023-03-20T04:35:28.731Z,98569.41
2023-03-20T04:38:33.502Z,98566.84
2023-03-20T04:41:36.060Z,98565.13
2023-03-20T04:44:39.376Z,98571.56
2023-03-20T04:47:41.173Z,98557.44
2023-03-20T04:50:43.193Z,98556.63
2023-03-20T04:53:44.994Z,98558.47
2023-03-20T04:56:47.805Z,98561.13
2023-03-20T04:59:53.661Z,98555.88
2023-03-20T05:02:55.318Z,98556.81
2023-03-20T05:05:57.143Z,98559.34
2023-03-20T05:09:00.956Z,98554.16
2023-03-20T05:12:05.596Z,98559.41
2023-03-20T05:15:32.082Z,98563.78
2023-03-20T05:18:52.485Z,98563.78
2023-03-20T05:22:13.547Z,98569.16
2023-03-20T05:25:29.137Z,98559.47
2023-03-20T05:28:44.523Z,98567.50
2023-03-20T05:31:59.642Z,98571.81
2023-03-20T05:35:16.081Z,98553.50
2023-03-20T05:38:40.643Z,98564.22
2023-03-20T05:41:56.220Z,98558.19
2023-03-20T05:45:11.241Z,98557.28
2023-03-20T05:48:20.377Z,98558.31
2023-03-20T05:51:32.678Z,98563.44
2023-03-20T05:54:43.425Z,98569.00
2023-03-20T05:58:12.292Z,98577.03
2023-03-20T06:01:37.212Z,98570.25
2023-03-20T06:05:02.394Z,98578.88
2023-03-20T06:08:10.436Z,98579.81
2023-03-20T06:11:12.676Z,98585.94
2023-03-20T06:14:15.046Z,98587.72
2023-03-20T06:17:20.664Z,98589.56
2023-03-20T06:20:29.262Z,98582.53
2023-03-20T06:23:31.128Z,98599.34
2023-03-20T06:26:34.596Z,98596.91
2023-03-20T06:29:39.942Z,98602.28
2023-03-20T06:32:51.610Z,98600.50
2023-03-20T06:35:55.980Z,98602.47
2023-03-20T06:38:58.056Z,98597.16
2023-03-20T06:42:01.646Z,98599.09
2023-03-20T06:45:03.662Z,98603.50
2023-03-20T06:48:24.819Z,98603.44
2023-03-20T06:51:28.641Z,98596.34
2023-03-20T06:54:30.731Z,98598.19
2023-03-20T06:57:33.135Z,98603.44
2023-03-20T07:00:35.428Z,98599.13
2023-03-20T07:03:40.304Z,98599.00
2023-03-20T07:06:44.950Z,98591.84
2023-03-20T07:09:47.306Z,98604.19
2023-03-20T07:12:49.507Z,98607.66
2023-03-20T07:16:03.783Z,98600.63
2023-03-20T07:19:13.311Z,98611.25
2023-03-20T07:22:22.024Z,98615.63
2023-03-20T07:25:39.325Z,98624.56
2023-03-20T07:28:43.554Z,98621.25
2023-03-20T07:31:51.387Z,98632.59
2023-03-20T07:34:59.839Z,98635.34
2023-03-20T07:38:03.801Z,98643.31
2023-03-20T07:41:06.780Z,98643.31
2023-03-20T07:44:10.607Z,98645.13
2023-03-20T07:47:25.805Z,98646.22
2023-03-20T07:50:27.565Z,98646.84
2023-03-20T07:53:31.166Z,98650.13
2023-03-20T07:56:32.783Z,98658.91
2023-03-20T07:59:34.514Z,98649.88
2023-03-20T08:02:36.252Z,98648.84
2023-03-20T08:05:38.332Z,98646.06
2023-03-20T08:08:41.948Z,98647.28
2023-03-20T08:11:43.936Z,98643.78
2023-03-20T08:14:45.597Z,98652.44
2023-03-20T08:17:47.229Z,98644.41
2023-03-20T08:20:50.334Z,98644.28
2023-03-20T08:23:53.560Z,98644.16
2023-03-20T08:26:55.377Z,98636.25
2023-03-20T08:29:57.111Z,98644.84
2023-03-20T08:32:59.456Z,98658.88
2023-03-20T08:36:01.327Z,98667.69
2023-03-20T08:39:04.325Z,98662.56
2023-03-20T08:42:06.231Z,98664.13
2023-03-20T08:45:11.268Z,98661.69
2023-03-20T08:48:13.443Z,98666.88
2023-03-20T08:51:15.425Z,98666.88
2023-03-20T08:54:21.623Z,98674.56
2023-03-20T08:57:23.475Z,98682.22
2023-03-20T09:00:25.397Z,98680.63
2023-03-20T09:03:27.182Z,98680.88
2023-03-20T09:06:28.880Z,98677.28
2023-03-20T09:09:32.477Z,98680.72
2023-03-20T09:12:34.424Z,98679.25
2023-03-20T09:15:36.518Z,98680.97
2023-03-20T09:18:38.558Z,98678.06
2023-03-20T09:21:40.234Z,98683.09
2023-03-20T09:24:43.559Z,98668.38
2023-03-20T09:27:45.729Z,98672.59
2023-03-20T09:30:47.733Z,98673.19
2023-03-20T09:33:49.420Z,98670.44
2023-03-20T09:36:51.703Z,98665.84
2023-03-20T09:43:18.793Z,98676.94
2023-03-20T09:46:28.595Z,98679.66
2023-03-20T09:49:37.303Z,98673.50
2023-03-20T09:52:41.202Z,98676.84
2023-03-20T09:55:43.984Z,98691.03
2023-03-20T09:58:51.433Z,98678.59
2023-03-20T10:01:54.517Z,98676.66
2023-03-20T10:04:56.201Z,98683.41
2023-03-20T10:07:59.312Z,98678.13
2023-03-20T10:11:06.296Z,98676.06
2023-03-20T10:14:18.632Z,98672.41
2023-03-20T10:17:38.177Z,98677.72
2023-03-20T10:20:41.931Z,98682.53
2023-03-20T10:23:50.473Z,98679.38
2023-03-20T10:26:53.349Z,98688.84
2023-03-20T10:30:03.569Z,98686.75
2023-03-20T10:33:12.517Z,98683.56
2023-03-20T10:36:19.376Z,98680.53
2023-03-20T10:39:25.524Z,98676.16
2023-03-20T10:42:30.177Z,98672.28
2023-03-20T10:45:38.615Z,98681.41
2023-03-20T10:48:42.943Z,98677.81
2023-03-20T10:51:47.618Z,98668.75
2023-03-20T10:54:52.900Z,98669.91
2023-03-20T10:57:57.808Z,98668.03
2023-03-20T11:01:01.101Z,98661.78
2023-03-20T11:04:02.956Z,98658.78
2023-03-20T11:07:11.156Z,98664.50
2023-03-20T11:10:14.224Z,98655.00
2023-03-20T11:13:16.994Z,98647.16
2023-03-20T11:16:21.465Z,98652.34
2023-03-20T11:19:24.257Z,98652.50
2023-03-20T11:22:26.875Z,98653.28
2023-03-20T11:25:31.662Z,98652.66
2023-03-20T11:28:35.150Z,98651.06
2023-03-20T11:31:41.481Z,98642.88
2023-03-20T11:34:43.440Z,98641.13
2023-03-20T11:37:46.108Z,98646.53
2023-03-20T11:40:48.756Z,98635.94
2023-03-20T11:43:50.386Z,98616.25
2023-03-20T11:46:59.004Z,98612.94
2023-03-20T11:50:02.306Z,98607.34
2023-03-20T11:53:04.623Z,98617.41
2023-03-20T11:56:08.372Z,98619.00
2023-03-20T11:59:13.808Z,98612.72
2023-03-20T12:02:18.182Z,98617.31
2023-03-20T12:05:27.343Z,98608.72
2023-03-20T12:08:31.999Z,98616.03
2023-03-20T12:11:41.518Z,98613.00
2023-03-20T12:14:47.491Z,98599.50
2023-03-20T12:17:55.430Z,98597.94
2023-03-20T12:21:03.014Z,98599.06
2023-03-20T12:24:08.268Z,98597.13
2023-03-20T12:27:17.408Z,98589.28
2023-03-20T12:30:22.805Z,98595.50
2023-03-20T12:33:32.515Z,98595.41
2023-03-20T12:36:35.950Z,98592.09
2023-03-20T12:39:41.421Z,98592.56
2023-03-20T12:42:48.127Z,98599.59
2023-03-20T12:45:53.492Z,98595.75
2023-03-20T12:49:01.296Z,98596.66
2023-03-20T12:52:09.378Z,98595.44
2023-03-20T12:55:30.019Z,98602.56
2023-03-20T12:58:37.992Z,98593.97
2023-03-20T13:01:44.292Z,98596.94
2023-03-20T13:04:58.565Z,98598.53
2023-03-20T13:08:09.137Z,98602.00
2023-03-20T13:11:16.794Z,98600.88
2023-03-20T13:14:24.565Z,98593.03
2023-03-20T13:17:28.929Z,98590.94
2023-03-20T13:20:33.519Z,98589.63
2023-03-20T13:23:41.975Z,98583.28
2023-03-20T13:26:47.926Z,98584.66
2023-03-20T13:29:52.173Z,98574.94
2023-03-20T13:32:57.368Z,98575.63
2023-03-20T13:36:04.471Z,98577.63
2023-03-20T13:39:10.772Z,98574.97
2023-03-20T13:42:15.110Z,98573.53
2023-03-20T13:45:24.373Z,98569.69
2023-03-20T13:48:29.157Z,98570.88
2023-03-20T13:51:35.902Z,98566.00
2023-03-20T13:54:43.240Z,98573.91
2023-03-20T13:57:48.563Z,98574.44
2023-03-20T14:00:56.222Z,98565.03
2023-03-20T14:03:58.967Z,98564.16
2023-03-20T14:07:02.061Z,98557.22
2023-03-20T14:10:28.349Z,98554.75
2023-03-20T14:13:30.645Z,98567.13
2023-03-20T14:16:32.410Z,98555.47
2023-03-20T14:19:35.505Z,98561.31
2023-03-20T14:22:39.548Z,98556.34
2023-03-20T14:25:42.085Z,98566.13
2023-03-20T14:28:45.277Z,98558.72
2023-03-20T14:31:48.782Z,98569.72
2023-03-20T14:34:52.226Z,98563.03
2023-03-20T14:38:05.688Z,98568.56
2023-03-20T14:41:11.754Z,98571.53
2023-03-20T14:44:22.715Z,98559.91
2023-03-20T14:47:29.995Z,98570.78
2023-03-20T14:50:33.406Z,98568.06
2023-03-20T14:53:36.566Z,98573.63
2023-03-20T14:56:38.998Z,98569.34
2023-03-20T14:59:41.228Z,98566.69
2023-03-20T15:02:46.309Z,98570.38
2023-03-20T15:05:56.217Z,98566.63
2023-03-20T15:09:00.909Z,98566.06
2023-03-20T15:12:06.648Z,98564.38
2023-03-20T15:15:22.751Z,98566.25
2023-03-20T15:18:25.175Z,98561.03
2023-03-20T15:21:31.048Z,98563.69
2023-03-20T15:24:34.159Z,98553.41
2023-03-20T15:27:35.789Z,98552.50
2023-03-20T15:30:38.866Z,98555.22
2023-03-20T15:33:42.823Z,98557.22
2023-03-20T15:36:44.453Z,98558.16
2023-03-20T15:39:49.156Z,98547.66
2023-03-20T15:42:54.689Z,98537.09
2023-03-20T15:46:16.177Z,98532.63
2023-03-20T15:49:18.700Z,98544.00
2023-03-20T15:52:24.504Z,98541.06
2023-03-20T15:55:28.234Z,98541.81
2023-03-20T15:58:32.162Z,98548.09
2023-03-20T16:01:34.112Z,98547.66
2023-03-20T16:04:36.124Z,98540.53
2023-03-20T16:07:37.747Z,98542.34
2023-03-20T16:10:41.506Z,98551.56
2023-03-20T16:13:46.616Z,98550.00
2023-03-20T16:16:49.634Z,98535.84
2023-03-20T16:19:51.932Z,98550.25
2023-03-20T16:22:55.783Z,98549.53
2023-03-20T16:25:59.778Z,98536.13
2023-03-20T16:29:04.176Z,98537.16
2023-03-20T16:32:08.041Z,98531.00
2023-03-20T16:35:16.227Z,98537.16
2023-03-20T16:38:23.860Z,98534.69
2023-03-20T16:41:30.138Z,98541.78
2023-03-20T16:44:34.377Z,98544.47
2023-03-20T16:47:36.408Z,98549.91
2023-03-20T16:50:39.429Z,98543.91
2023-03-20T16:53:42.275Z,98541.31
2023-03-20T16:56:51.456Z,98543.06
2023-03-20T16:59:57.548Z,98533.50
2023-03-20T17:03:13.267Z,98541.41
2023-03-20T17:06:35.779Z,98541.59
2023-03-20T17:09:55.244Z,98535.34
2023-03-20T17:12:58.502Z,98537.19
2023-03-20T17:16:03.073Z,98545.38
2023-03-20T17:19:05.920Z,98542.72
2023-03-20T17:22:11.742Z,98547.16
2023-03-20T17:25:13.465Z,98548.13
2023-03-20T17:28:19.948Z,98542.00
2023-03-20T17:31:21.800Z,98552.53
2023-03-20T17:34:23.520Z,98544.63
2023-03-20T17:37:29.446Z,98546.47
2023-03-20T17:40:31.469Z,98551.72
2023-03-20T17:43:37.684Z,98551.78
2023-03-20T17:46:56.156Z,98553.50
2023-03-20T17:49:58.630Z,98557.09
2023-03-20T17:53:00.258Z,98563.19
2023-03-20T17:56:01.752Z,98559.72
2023-03-20T17:59:06.701Z,98564.25
2023-03-20T18:02:08.931Z,98562.59
2023-03-20T18:05:10.711Z,98567.97
2023-03-20T18:08:16.276Z,98564.50
2023-03-20T18:11:17.974Z,98569.00
2023-03-20T18:14:21.000Z,98560.25
2023-03-20T18:17:22.478Z,98570.06
2023-03-20T18:20:26.055Z,98557.75
2023-03-20T18:23:27.660Z,98560.47
2023-03-20T18:26:29.298Z,98564.91
2023-03-20T18:29:32.404Z,98571.09
2023-03-20T18:32:34.178Z,98572.88
2023-03-20T18:35:36.367Z,98572.88
2023-03-20T18:38:38.036Z,98578.19
2023-03-20T18:41:39.619Z,98578.19
2023-03-20T18:44:42.579Z,98571.22
2023-03-20T18:47:44.611Z,98574.91
2023-03-20T18:50:50.936Z,98578.38
2023-03-20T18:53:52.619Z,98568.69
2023-03-20T18:56:56.483Z,98577.69
2023-03-20T18:59:59.409Z,98573.47
2023-03-20T19:03:01.115Z,98572.66
2023-03-20T19:06:02.873Z,98577.47
2023-03-20T19:09:05.165Z,98560.81
2023-03-20T19:12:06.972Z,98565.41
2023-03-20T19:15:10.723Z,98566.16
2023-03-20T19:18:15.780Z,98570.72
2023-03-20T19:21:18.268Z,98572.56
2023-03-20T19:24:21.535Z,98565.53
2023-03-20T19:27:23.303Z,98570.72
2023-03-20T19:30:27.851Z,98570.72
2023-03-20T19:33:29.474Z,98560.09
2023-03-20T19:36:32.837Z,98567.16
2023-03-20T19:39:36.700Z,98568.97
2023-03-20T19:42:59.008Z,98572.56
2023-03-20T19:46:01.144Z,98565.53
2023-03-20T19:49:02.870Z,98566.63
2023-03-20T19:52:06.876Z,98561.59
2023-03-20T19:55:08.867Z,98563.53
2023-03-20T19:58:10.546Z,98554.91
2023-03-20T20:01:17.275Z,98557.78
2023-03-20T20:04:19.358Z,98558.81
2023-03-20T20:10:45.422Z,98555.38
2023-03-20T20:14:04.780Z,98546.53
2023-03-20T20:21:22.202Z,98534.13
2023-03-20T20:24:04.823Z,98530.47
2023-03-20T20:27:16.819Z,98530.34
2023-03-20T20:30:20.826Z,98540.09
2023-03-20T20:33:28.164Z,98527.72
2023-03-20T20:39:53.352Z,98530.47
2023-03-20T20:43:01.402Z,98527.13
2023-03-20T20:46:03.933Z,98532.47
2023-03-20T20:49:18.338Z,98533.41
2023-03-20T20:52:22.369Z,98519.31
2023-03-20T20:55:25.175Z,98523.59
2023-03-20T20:58:27.573Z,98526.25
2023-03-20T21:01:29.269Z,98519.91
2023-03-20T21:04:32.313Z,98519.00
2023-03-20T21:07:36.519Z,98525.97
2023-03-20T21:10:38.268Z,98516.25
2023-03-20T21:13:39.907Z,98522.41
2023-03-20T21:16:41.732Z,98526.84
2023-03-20T21:19:43.418Z,98526.78
2023-03-20T21:22:46.422Z,98520.59
2023-03-20T21:25:49.149Z,98523.19
2023-03-20T21:28:51.439Z,98525.84
2023-03-20T21:31:53.266Z,98520.56
2023-03-20T21:41:41.360Z,98520.50
2023-03-20T21:45:34.480Z,98514.28
2023-03-20T21:48:39.323Z,98505.41
2023-03-20T21:58:57.495Z,98509.84
2023-03-20T22:02:01.736Z,98513.34
2023-03-20T22:05:41.924Z,98509.78
2023-03-20T22:09:25.764Z,98503.63
2023-03-20T22:12:27.846Z,98504.53
2023-03-20T22:15:39.336Z,98509.78
2023-03-20T22:22:37.378Z,98521.25
2023-03-20T22:33:03.564Z,98527.38
2023-03-20T22:39:15.899Z,98521.13
2023-03-20T22:42:43.882Z,98512.31
2023-03-20T22:45:31.546Z,98522.88
2023-03-20T22:48:39.949Z,98515.84
2023-03-20T22:51:52.417Z,98508.88
2023-03-20T22:55:03.849Z,98513.34
2023-03-20T22:58:08.009Z,98502.75
2023-03-20T23:01:11.928Z,98507.09
2023-03-20T23:04:13.688Z,98505.28
2023-03-20T23:07:15.381Z,98500.78
2023-03-20T23:10:17.106Z,98499.03
2023-03-20T23:13:19.456Z,98497.22
2023-03-20T23:16:22.575Z,98503.38
2023-03-20T23:19:25.432Z,98497.16
2023-03-20T23:22:28.061Z,98499.69
2023-03-20T23:25:38.713Z,98505.88
2023-03-20T23:28:42.434Z,98499.66
2023-03-20T23:31:45.431Z,98501.44
2023-03-20T23:34:47.034Z,98500.50
2023-03-20T23:37:48.832Z,98502.28
2023-03-20T23:40:51.984Z,98500.50
2023-03-20T23:43:53.506Z,98503.22
2023-03-20T23:47:01.347Z,98497.91
2023-03-20T23:50:06.525Z,98511.13
2023-03-20T23:53:19.595Z,98498.78
2023-03-20T23:56:22.583Z,98497.84
2023-03-20T23:59:24.066Z,98502.25
